Time;durP1;ratioP1;P1;durP2;ratioP2;P2;SDS_P1;SDS_P2;PMS_P1;PMS_P2;Temp;Humidity;BMP_temperature;BMP_pressure;BME280_temperature;BME280_humidity;BME280_pressure;Samples;Min_cycle;Max_cycle;Signal;HPM_P1;HPM_P2
2020/12/15 00:00:29;;;;;;;8.30;7.60;;;7.70;59.90;;;;;;5062081;28;20205;-64
2020/12/15 00:02:56;;;;;;;8.67;7.87;;;7.80;60.60;;;;;;5067272;28;20205;-64
2020/12/15 00:05:22;;;;;;;8.83;8.03;;;7.80;59.80;;;;;;5066084;28;20740;-63
2020/12/15 00:07:48;;;;;;;8.33;7.63;;;7.70;59.80;;;;;;5066462;28;20233;-63
2020/12/15 00:10:16;;;;;;;8.93;8.13;;;7.70;59.90;;;;;;5067507;28;20232;-64
2020/12/15 00:12:42;;;;;;;7.90;7.20;;;7.70;60.00;;;;;;5065199;28;20220;-62
2020/12/15 00:15:09;;;;;;;8.03;7.33;;;7.80;60.00;;;;;;5064532;28;20221;-63
2020/12/15 00:17:35;;;;;;;8.03;7.33;;;7.70;60.20;;;;;;5065864;28;20632;-64
2020/12/15 00:20:02;;;;;;;8.67;7.70;;;7.70;60.40;;;;;;5066143;28;20209;-63
2020/12/15 00:22:29;;;;;;;8.70;7.67;;;7.80;60.50;;;;;;5065440;28;20213;-64
2020/12/15 00:24:57;;;;;;;8.90;8.10;;;7.80;60.40;;;;;;5065794;28;20225;-64
2020/12/15 00:27:25;;;;;;;10.33;8.60;;;7.80;60.30;;;;;;5064095;28;20208;-63
2020/12/15 00:29:51;;;;;;;9.23;8.50;;;7.80;60.20;;;;;;5064141;28;20209;-64
2020/12/15 00:32:21;;;;;;;9.17;8.33;;;7.80;60.00;;;;;;5064999;28;20776;-64
2020/12/15 00:34:47;;;;;;;16.50;8.27;;;7.80;60.20;;;;;;5065474;28;20320;-64
2020/12/15 00:37:13;;;;;;;10.17;8.37;;;7.80;60.20;;;;;;5066252;28;20678;-65
2020/12/15 00:39:40;;;;;;;11.13;10.03;;;7.80;60.20;;;;;;5065620;28;20228;-63
2020/12/15 00:42:07;;;;;;;9.90;8.93;;;7.80;60.20;;;;;;5064921;28;20201;-65
2020/12/15 00:44:34;;;;;;;8.87;7.97;;;7.70;60.20;;;;;;5064701;28;21059;-63
2020/12/15 00:47:01;;;;;;;8.50;7.70;;;7.70;60.40;;;;;;5062423;28;20211;-65
2020/12/15 00:49:27;;;;;;;8.90;8.10;;;7.70;60.60;;;;;;5063654;28;20276;-63
2020/12/15 00:51:54;;;;;;;9.37;8.50;;;7.70;61.40;;;;;;5062512;28;20205;-62
2020/12/15 00:54:20;;;;;;;9.33;8.50;;;7.70;60.90;;;;;;5065105;28;20251;-63
2020/12/15 00:56:47;;;;;;;12.50;8.63;;;7.70;61.00;;;;;;5065108;28;20217;-63
2020/12/15 00:59:13;;;;;;;8.77;7.97;;;7.70;61.00;;;;;;5061969;28;20699;-64
2020/12/15 01:01:40;;;;;;;9.10;8.20;;;7.70;61.20;;;;;;5061698;28;20204;-64
2020/12/15 01:04:07;;;;;;;9.13;8.07;;;7.80;61.50;;;;;;5064009;28;20311;-64
2020/12/15 01:06:40;;;;;;;9.57;8.67;;;7.80;61.60;;;;;;5062694;28;20258;-63
2020/12/15 01:09:07;;;;;;;9.23;8.43;;;7.90;61.90;;;;;;5059022;28;20579;-63
2020/12/15 01:11:34;;;;;;;9.33;8.43;;;7.90;61.70;;;;;;5062733;28;20212;-63
2020/12/15 01:14:01;;;;;;;8.77;7.97;;;8.00;61.80;;;;;;5062914;28;20216;-65
2020/12/15 01:16:30;;;;;;;9.10;8.20;;;8.10;61.90;;;;;;5063688;28;20198;-65
2020/12/15 01:18:58;;;;;;;9.00;8.20;;;8.10;61.80;;;;;;5063800;28;20855;-64
2020/12/15 01:21:28;;;;;;;9.63;8.67;;;8.20;61.80;;;;;;5064610;28;20209;-64
2020/12/15 01:23:54;;;;;;;9.47;8.57;;;8.30;61.80;;;;;;5063519;28;20244;-64
2020/12/15 01:26:22;;;;;;;9.57;8.77;;;8.30;61.50;;;;;;5062773;28;20228;-65
2020/12/15 01:28:49;;;;;;;9.27;8.37;;;8.40;61.50;;;;;;5063198;28;20209;-64
2020/12/15 01:31:16;;;;;;;9.43;8.63;;;8.40;61.40;;;;;;5062107;28;20213;-63
2020/12/15 01:33:42;;;;;;;9.40;8.60;;;8.50;61.40;;;;;;5062554;28;20247;-65
2020/12/15 01:36:12;;;;;;;8.93;8.20;;;8.50;61.30;;;;;;5063224;28;20272;-64
2020/12/15 01:38:40;;;;;;;9.53;8.73;;;8.50;61.30;;;;;;5064314;28;20245;-64
2020/12/15 01:41:07;;;;;;;9.47;8.63;;;8.60;61.30;;;;;;5064718;28;20231;-65
2020/12/15 01:43:34;;;;;;;9.40;8.50;;;8.60;61.10;;;;;;5063870;28;20229;-65
2020/12/15 01:46:01;;;;;;;8.83;8.03;;;8.70;61.10;;;;;;5061954;28;20220;-63
2020/12/15 01:48:27;;;;;;;9.03;8.23;;;8.70;61.00;;;;;;5062492;28;20216;-64
2020/12/15 01:50:53;;;;;;;8.57;7.87;;;8.70;61.00;;;;;;5062398;28;20213;-65
2020/12/15 01:53:21;;;;;;;9.23;8.43;;;8.70;60.90;;;;;;5062509;28;20572;-64
2020/12/15 01:55:48;;;;;;;8.63;7.87;;;8.80;61.00;;;;;;5064584;28;20205;-64
2020/12/15 01:58:15;;;;;;;9.43;8.53;;;8.80;61.00;;;;;;5061156;28;20289;-65
2020/12/15 02:00:42;;;;;;;9.53;8.63;;;8.80;60.80;;;;;;5060534;28;20211;-64
2020/12/15 02:03:08;;;;;;;9.20;8.40;;;8.80;60.70;;;;;;5063593;28;20225;-64
2020/12/15 02:05:36;;;;;;;9.23;8.43;;;8.80;60.70;;;;;;5061472;28;20237;-64
2020/12/15 02:08:03;;;;;;;8.43;7.73;;;8.90;60.70;;;;;;5063960;28;20207;-65
2020/12/15 02:10:30;;;;;;;8.13;7.47;;;8.90;60.60;;;;;;5062757;28;20213;-64
2020/12/15 02:12:56;;;;;;;8.43;7.73;;;8.90;60.50;;;;;;5063604;28;20732;-64
2020/12/15 02:15:23;;;;;;;8.13;7.43;;;8.90;60.40;;;;;;5061554;28;21028;-64
2020/12/15 02:17:49;;;;;;;8.30;7.60;;;8.90;60.40;;;;;;5063529;28;20674;-64
2020/12/15 02:20:16;;;;;;;8.10;7.40;;;9.00;60.40;;;;;;5061692;28;20224;-65
2020/12/15 02:22:43;;;;;;;8.17;7.47;;;9.00;60.40;;;;;;5063335;28;20208;-65
2020/12/15 02:25:10;;;;;;;7.90;7.20;;;9.00;60.30;;;;;;5063497;28;20229;-64
2020/12/15 02:27:36;;;;;;;8.17;7.47;;;9.00;60.30;;;;;;5062482;28;20593;-65
2020/12/15 02:30:06;;;;;;;7.53;6.90;;;9.00;60.30;;;;;;5060679;28;20318;-63
2020/12/15 02:32:34;;;;;;;7.93;7.23;;;9.00;60.40;;;;;;5062799;28;20693;-65
2020/12/15 02:35:01;;;;;;;8.13;7.43;;;9.00;60.30;;;;;;5060664;28;20809;-63
2020/12/15 02:37:28;;;;;;;7.50;6.83;;;9.00;60.30;;;;;;5061044;28;20205;-64
2020/12/15 02:39:58;;;;;;;6.90;6.30;;;9.10;60.20;;;;;;5061658;28;20255;-64
2020/12/15 02:42:29;;;;;;;6.97;6.37;;;9.00;60.10;;;;;;5063833;28;20737;-64
2020/12/15 02:44:56;;;;;;;7.40;6.80;;;9.10;60.10;;;;;;5062917;28;20280;-64
2020/12/15 02:47:25;;;;;;;6.80;6.20;;;9.10;60.00;;;;;;5062228;28;20306;-62
2020/12/15 02:49:58;;;;;;;6.87;6.27;;;9.10;60.00;;;;;;5062069;28;20784;-62
2020/12/15 02:52:24;;;;;;;6.40;5.90;;;9.10;60.00;;;;;;5060995;28;20267;-63
2020/12/15 02:54:51;;;;;;;6.53;5.97;;;9.10;59.80;;;;;;5064327;28;21041;-62
2020/12/15 02:57:19;;;;;;;6.77;6.17;;;9.10;59.80;;;;;;5068400;28;20204;-63
2020/12/15 02:59:46;;;;;;;7.57;6.87;;;9.10;59.80;;;;;;5064516;28;20197;-63
2020/12/15 03:02:19;;;;;;;6.70;6.20;;;9.10;59.90;;;;;;5065897;28;20197;-63
2020/12/15 03:04:46;;;;;;;6.70;6.20;;;9.10;59.90;;;;;;5065854;28;20609;-63
2020/12/15 03:07:13;;;;;;;6.37;5.87;;;9.00;59.80;;;;;;5066363;28;20213;-62
2020/12/15 03:09:40;;;;;;;6.60;6.00;;;9.00;59.80;;;;;;5066338;28;20216;-62
2020/12/15 03:12:06;;;;;;;6.43;5.93;;;9.10;59.80;;;;;;5065887;28;20204;-63
2020/12/15 03:14:33;;;;;;;6.60;6.10;;;9.10;59.80;;;;;;5067115;28;20708;-64
2020/12/15 03:17:00;;;;;;;6.10;5.60;;;9.00;59.80;;;;;;5065638;28;20677;-62
2020/12/15 03:19:27;;;;;;;6.10;5.60;;;9.00;59.80;;;;;;5067310;28;20225;-63
2020/12/15 03:21:53;;;;;;;5.63;5.23;;;9.00;59.70;;;;;;5064765;28;20220;-61
2020/12/15 03:24:20;;;;;;;5.37;4.97;;;9.00;60.30;;;;;;5068054;28;20220;-61
2020/12/15 03:26:46;;;;;;;5.10;4.70;;;9.00;59.60;;;;;;5067147;28;20205;-63
2020/12/15 03:29:12;;;;;;;4.60;4.27;;;9.00;59.50;;;;;;5065775;28;20209;-62
2020/12/15 03:31:40;;;;;;;4.13;3.83;;;9.00;59.40;;;;;;5064703;28;20686;-64
2020/12/15 03:34:06;;;;;;;4.37;4.07;;;9.00;59.40;;;;;;5065204;28;20229;-64
2020/12/15 03:36:32;;;;;;;4.20;3.90;;;8.90;59.30;;;;;;5064817;28;20201;-60
2020/12/15 03:38:59;;;;;;;4.57;4.27;;;8.90;59.30;;;;;;5066335;28;20205;-63
2020/12/15 03:41:25;;;;;;;4.47;4.17;;;8.80;59.20;;;;;;5066362;28;20205;-62
2020/12/15 03:43:52;;;;;;;4.73;4.43;;;8.80;59.20;;;;;;5066347;28;20237;-63
2020/12/15 03:46:18;;;;;;;4.53;4.20;;;8.70;59.20;;;;;;5063875;28;20939;-63
2020/12/15 03:48:46;;;;;;;4.93;4.53;;;8.70;59.40;;;;;;5066726;28;20634;-62
2020/12/15 03:51:12;;;;;;;4.57;4.27;;;8.70;59.50;;;;;;5066284;28;20303;-61
2020/12/15 03:53:38;;;;;;;5.13;4.73;;;8.70;59.60;;;;;;5066844;28;20240;-64
2020/12/15 03:56:05;;;;;;;5.30;4.87;;;8.70;59.70;;;;;;5067886;28;20205;-63
2020/12/15 03:58:31;;;;;;;4.80;4.40;;;8.70;59.70;;;;;;5065883;28;20209;-62
2020/12/15 04:00:58;;;;;;;5.47;5.03;;;8.70;59.60;;;;;;5060781;28;20243;-62
2020/12/15 04:03:24;;;;;;;5.90;5.40;;;8.70;59.60;;;;;;5065407;28;20274;-61
2020/12/15 04:05:51;;;;;;;5.53;5.00;;;8.60;59.50;;;;;;5065531;28;20232;-59
2020/12/15 04:08:18;;;;;;;5.57;5.07;;;8.70;59.60;;;;;;5067027;28;20326;-62
2020/12/15 04:10:44;;;;;;;6.23;5.70;;;8.60;59.50;;;;;;5063208;28;20208;-62
2020/12/15 04:13:11;;;;;;;7.10;5.53;;;8.60;59.50;;;;;;5065713;28;20229;-59
2020/12/15 04:15:37;;;;;;;5.13;4.73;;;8.60;59.40;;;;;;5065553;28;20196;-64
2020/12/15 04:18:04;;;;;;;5.47;4.97;;;8.50;59.30;;;;;;5067014;28;20208;-61
2020/12/15 04:20:30;;;;;;;5.77;5.33;;;8.50;59.40;;;;;;5063423;28;20593;-63
2020/12/15 04:22:57;;;;;;;5.80;5.30;;;8.40;59.40;;;;;;5066115;28;20213;-61
2020/12/15 04:25:25;;;;;;;5.27;4.87;;;8.40;59.20;;;;;;5064521;28;20229;-63
2020/12/15 04:27:52;;;;;;;5.30;4.80;;;8.30;59.10;;;;;;5064752;28;20575;-62
2020/12/15 04:30:19;;;;;;;4.80;4.40;;;8.30;59.20;;;;;;5064033;28;20213;-64
2020/12/15 04:32:46;;;;;;;5.50;5.00;;;8.20;59.20;;;;;;5064097;28;20217;-62
2020/12/15 04:35:12;;;;;;;4.90;4.50;;;8.20;59.30;;;;;;5062569;28;20229;-61
2020/12/15 04:37:39;;;;;;;4.80;4.40;;;8.10;59.30;;;;;;5064349;28;20219;-62
2020/12/15 04:40:06;;;;;;;4.57;4.17;;;8.00;59.50;;;;;;5065732;28;20201;-62
2020/12/15 04:42:35;;;;;;;4.20;3.90;;;8.00;59.70;;;;;;5065380;28;20201;-62
2020/12/15 04:45:01;;;;;;;3.97;3.67;;;8.00;59.80;;;;;;5064384;28;20732;-64
2020/12/15 04:47:34;;;;;;;4.57;4.17;;;8.00;59.90;;;;;;5066190;28;21025;-62
2020/12/15 04:50:05;;;;;;;4.70;4.30;;;8.00;59.80;;;;;;5064876;28;20205;-62
2020/12/15 04:52:49;;;;;;;4.17;3.87;;;8.00;59.60;;;;;;5064793;28;20211;-63
2020/12/15 04:55:17;;;;;;;4.80;4.40;;;8.00;59.70;;;;;;5063592;28;20688;-62
2020/12/15 04:57:47;;;;;;;4.67;4.27;;;8.00;60.30;;;;;;5064692;28;20205;-62
2020/12/15 05:00:15;;;;;;;4.40;4.00;;;7.90;59.50;;;;;;5064606;28;20282;-62
2020/12/15 05:02:47;;;;;;;3.67;3.37;;;7.90;59.60;;;;;;5061316;28;20213;-63
2020/12/15 05:05:14;;;;;;;4.20;3.90;;;7.90;59.60;;;;;;5061743;28;20229;-62
2020/12/15 05:07:43;;;;;;;4.17;3.87;;;7.90;59.60;;;;;;5062268;28;20736;-61
2020/12/15 05:10:12;;;;;;;3.83;3.53;;;7.90;59.50;;;;;;5063388;28;20204;-62
2020/12/15 05:12:39;;;;;;;3.77;3.47;;;7.90;59.50;;;;;;5064364;28;20197;-62
2020/12/15 05:15:09;;;;;;;4.00;3.70;;;7.80;60.10;;;;;;5062574;28;20256;-62
2020/12/15 05:17:36;;;;;;;4.40;4.10;;;7.80;59.50;;;;;;5065093;28;20227;-63
2020/12/15 05:20:04;;;;;;;4.80;4.40;;;7.80;59.40;;;;;;5063723;28;20304;-62
2020/12/15 05:22:45;;;;;;;4.53;4.23;;;7.80;59.40;;;;;;5063141;28;20209;-63
2020/12/15 05:25:24;;;;;;;3.60;3.40;;;7.70;59.30;;;;;;5060970;28;20229;-63
2020/12/15 05:27:51;;;;;;;3.60;3.30;;;7.60;59.30;;;;;;5062702;28;20676;-63
2020/12/15 05:30:18;;;;;;;3.33;3.13;;;7.60;59.40;;;;;;5061170;28;20208;-63
2020/12/15 05:32:54;;;;;;;3.53;3.27;;;7.50;59.60;;;;;;5063250;28;20215;-62
2020/12/15 05:35:26;;;;;;;2.90;2.70;;;7.50;60.00;;;;;;5062851;28;20205;-64
2020/12/15 05:37:53;;;;;;;3.47;3.17;;;7.40;60.20;;;;;;5060415;28;20198;-62
2020/12/15 05:40:20;;;;;;;3.97;2.53;;;7.50;60.30;;;;;;5061654;28;20213;-63
2020/12/15 05:42:55;;;;;;;3.53;3.23;;;7.50;60.30;;;;;;5062396;28;20205;-63
2020/12/15 05:45:23;;;;;;;4.60;3.30;;;7.50;60.40;;;;;;5060845;28;20231;-62
2020/12/15 05:47:51;;;;;;;3.27;3.00;;;7.50;60.30;;;;;;5061301;28;20208;-63
2020/12/15 05:50:25;;;;;;;3.40;3.10;;;7.60;60.40;;;;;;5061619;28;20739;-62
2020/12/15 05:52:57;;;;;;;3.27;3.07;;;7.60;60.50;;;;;;5062768;28;20564;-64
2020/12/15 05:55:23;;;;;;;3.40;3.10;;;7.60;60.50;;;;;;5063870;28;20697;-63
2020/12/15 05:57:51;;;;;;;3.10;2.80;;;7.70;60.40;;;;;;5063906;28;20221;-63
2020/12/15 06:00:18;;;;;;;3.20;3.00;;;7.70;60.30;;;;;;5062511;28;20747;-63
2020/12/15 06:02:56;;;;;;;3.27;3.03;;;7.70;60.20;;;;;;5060295;28;20300;-63
2020/12/15 06:05:27;;;;;;;3.53;3.23;;;7.80;60.20;;;;;;5061493;28;20717;-64
2020/12/15 06:07:54;;;;;;;3.30;3.03;;;7.80;60.30;;;;;;5062792;28;20210;-63
2020/12/15 06:14:01;;;;;;;2.97;2.70;;;7.90;60.30;;;;;;5060555;28;20233;-63
2020/12/15 06:16:28;;;;;;;5.60;3.20;;;7.90;60.20;;;;;;5062953;28;20205;-62
2020/12/15 06:18:55;;;;;;;4.00;3.10;;;7.90;60.10;;;;;;5061552;28;20261;-62
2020/12/15 06:21:23;;;;;;;3.23;3.03;;;7.90;60.20;;;;;;5062157;28;20242;-63
2020/12/15 06:23:59;;;;;;;3.27;3.07;;;7.90;60.20;;;;;;5061339;28;20247;-62
2020/12/15 06:26:27;;;;;;;3.37;3.10;;;8.00;60.30;;;;;;5060736;28;20212;-61
2020/12/15 06:29:03;;;;;;;3.53;3.23;;;8.00;60.30;;;;;;5063083;28;20205;-62
2020/12/15 06:31:32;;;;;;;3.77;3.47;;;8.00;60.40;;;;;;5066718;28;20311;-62
2020/12/15 06:34:01;;;;;;;3.77;3.47;;;8.00;60.20;;;;;;5066872;28;20240;-62
2020/12/15 06:36:32;;;;;;;3.63;3.33;;;8.00;60.20;;;;;;5066100;28;20209;-63
2020/12/15 06:39:01;;;;;;;3.53;3.23;;;8.00;60.20;;;;;;5062948;28;20244;-62
2020/12/15 06:41:28;;;;;;;3.33;3.10;;;8.10;60.30;;;;;;5064798;28;20252;-62
2020/12/15 06:44:06;;;;;;;4.23;3.53;;;8.10;60.30;;;;;;5064530;28;20717;-63
2020/12/15 06:46:34;;;;;;;3.43;3.17;;;8.10;60.40;;;;;;5060265;28;20220;-63
2020/12/15 06:49:01;;;;;;;3.53;3.27;;;8.10;60.30;;;;;;5066070;28;20687;-63
2020/12/15 06:51:32;;;;;;;3.50;3.20;;;8.10;60.30;;;;;;5065104;28;20224;-63
2020/12/15 06:54:03;;;;;;;3.10;2.90;;;8.10;60.30;;;;;;5067205;28;20229;-64
2020/12/15 06:56:30;;;;;;;3.70;3.40;;;8.10;60.30;;;;;;5065312;28;20201;-65
2020/12/15 06:59:02;;;;;;;3.37;3.07;;;8.10;60.20;;;;;;5065075;28;20209;-64
2020/12/15 07:01:30;;;;;;;3.83;3.53;;;8.10;60.30;;;;;;5066167;28;20228;-63
2020/12/15 07:03:59;;;;;;;3.67;3.33;;;8.10;60.20;;;;;;5064642;28;20235;-64
2020/12/15 07:06:26;;;;;;;4.43;3.90;;;8.10;60.20;;;;;;5065773;28;20651;-63
2020/12/15 07:09:03;;;;;;;3.57;3.27;;;8.10;60.10;;;;;;5067317;28;20201;-64
2020/12/15 07:11:29;;;;;;;3.60;3.30;;;8.10;60.20;;;;;;5063050;28;20227;-64
2020/12/15 07:13:58;;;;;;;4.00;3.40;;;8.20;60.20;;;;;;5065765;28;20255;-65
2020/12/15 07:16:25;;;;;;;4.03;3.63;;;8.20;60.20;;;;;;5063378;28;20270;-64
2020/12/15 07:18:52;;;;;;;3.57;3.27;;;8.20;60.10;;;;;;5064300;28;20216;-64
2020/12/15 07:21:21;;;;;;;3.53;3.23;;;8.10;60.00;;;;;;5063155;28;20228;-64
2020/12/15 07:23:48;;;;;;;3.73;3.43;;;8.10;60.10;;;;;;5066075;28;20232;-62
2020/12/15 07:26:17;;;;;;;3.60;3.30;;;8.10;60.10;;;;;;5060087;28;20311;-64
2020/12/15 07:28:46;;;;;;;4.10;3.80;;;8.10;60.10;;;;;;5058710;28;20205;-64
2020/12/15 07:31:13;;;;;;;5.50;3.80;;;8.10;60.10;;;;;;5060936;28;20221;-64
2020/12/15 07:33:41;;;;;;;3.77;3.47;;;8.20;60.10;;;;;;5059871;28;20692;-64
2020/12/15 07:36:17;;;;;;;3.40;3.20;;;8.10;60.10;;;;;;5058901;28;20244;-63
2020/12/15 07:38:46;;;;;;;4.00;3.67;;;8.10;60.20;;;;;;5063206;28;20667;-65
2020/12/15 07:41:14;;;;;;;4.20;3.87;;;8.10;60.20;;;;;;5060055;28;20628;-63
2020/12/15 07:43:52;;;;;;;4.03;3.73;;;8.20;60.30;;;;;;5062042;28;20247;-64
2020/12/15 07:46:23;;;;;;;4.03;3.63;;;8.20;60.40;;;;;;5062837;28;20229;-64
2020/12/15 07:48:50;;;;;;;3.90;3.60;;;8.10;60.40;;;;;;5067691;28;20866;-64
2020/12/15 07:51:17;;;;;;;3.93;3.63;;;8.20;60.50;;;;;;5063926;28;20223;-64
2020/12/15 07:53:53;;;;;;;4.10;3.80;;;8.30;60.50;;;;;;5065896;28;20224;-66
2020/12/15 07:56:20;;;;;;;4.60;3.87;;;8.30;60.70;;;;;;5063664;28;20210;-63
2020/12/15 07:58:51;;;;;;;4.10;3.70;;;8.30;60.60;;;;;;5068717;28;20201;-64
2020/12/15 08:01:22;;;;;;;4.03;3.73;;;8.40;60.70;;;;;;5064433;28;20209;-65
2020/12/15 08:03:59;;;;;;;3.93;3.63;;;8.50;60.70;;;;;;5061633;28;20241;-65
2020/12/15 08:06:29;;;;;;;4.77;4.00;;;8.50;60.50;;;;;;5064960;28;20205;-65
2020/12/15 08:08:58;;;;;;;4.17;3.87;;;8.60;60.50;;;;;;5064592;28;20201;-64
2020/12/15 08:11:25;;;;;;;4.37;4.07;;;8.60;60.30;;;;;;5062049;28;20209;-64
2020/12/15 08:13:51;;;;;;;4.60;4.30;;;8.70;60.20;;;;;;5061771;28;20232;-65
2020/12/15 08:16:19;;;;;;;4.87;4.47;;;8.80;60.20;;;;;;5061358;28;20323;-64
2020/12/15 08:18:46;;;;;;;4.93;4.53;;;8.80;60.10;;;;;;5063643;28;20197;-64
2020/12/15 08:21:16;;;;;;;4.67;4.27;;;8.80;60.00;;;;;;5063525;28;20209;-64
2020/12/15 08:23:51;;;;;;;4.90;4.50;;;8.90;59.90;;;;;;5065937;28;20221;-65
2020/12/15 08:26:21;;;;;;;4.40;4.00;;;9.00;60.00;;;;;;5061907;28;20824;-65
2020/12/15 08:28:49;;;;;;;4.90;4.50;;;9.00;59.80;;;;;;5063562;28;20236;-64
2020/12/15 08:31:18;;;;;;;5.03;4.57;;;9.10;59.80;;;;;;5061960;28;20208;-65
2020/12/15 08:33:44;;;;;;;5.07;4.67;;;9.10;59.80;;;;;;5062899;28;20233;-63
2020/12/15 08:36:11;;;;;;;5.10;4.70;;;9.20;59.80;;;;;;5063282;28;20201;-65
2020/12/15 08:38:43;;;;;;;5.30;4.90;;;9.20;59.70;;;;;;5060635;28;20220;-64
2020/12/15 08:41:15;;;;;;;5.57;5.17;;;9.30;59.60;;;;;;5063072;28;20633;-65
2020/12/15 08:43:48;;;;;;;5.20;4.80;;;9.40;59.60;;;;;;5064064;28;20217;-64
2020/12/15 08:46:17;;;;;;;4.93;4.57;;;9.50;59.60;;;;;;5063151;28;20228;-63
2020/12/15 08:48:43;;;;;;;6.07;5.47;;;9.60;59.50;;;;;;5062939;28;20735;-65
2020/12/15 08:51:16;;;;;;;5.87;5.37;;;9.70;59.30;;;;;;5062680;28;20209;-66
2020/12/15 08:53:45;;;;;;;6.20;5.67;;;9.80;59.30;;;;;;5062005;28;20244;-64
2020/12/15 08:56:16;;;;;;;6.33;5.73;;;9.80;59.90;;;;;;5063922;28;20674;-64
2020/12/15 08:58:44;;;;;;;8.03;6.47;;;10.00;59.20;;;;;;5064235;28;20208;-64
2020/12/15 09:01:11;;;;;;;7.17;6.40;;;10.00;59.00;;;;;;5062552;28;20205;-64
2020/12/15 09:03:46;;;;;;;6.67;6.07;;;10.10;58.90;;;;;;5064209;28;20244;-62
2020/12/15 09:06:13;;;;;;;5.70;5.07;;;10.20;58.60;;;;;;5063137;28;20649;-63
2020/12/15 09:08:48;;;;;;;6.67;5.97;;;10.30;58.60;;;;;;5064893;28;20213;-64
2020/12/15 09:11:17;;;;;;;5.77;5.17;;;10.30;58.40;;;;;;5063507;28;20208;-64
2020/12/15 09:13:56;;;;;;;5.93;5.33;;;10.40;58.50;;;;;;5063949;28;20592;-62
2020/12/15 09:16:32;;;;;;;5.53;5.03;;;10.40;58.20;;;;;;5063036;28;20197;-64
2020/12/15 09:19:09;;;;;;;5.90;5.40;;;10.50;58.30;;;;;;5063849;28;20582;-63
2020/12/15 09:21:36;;;;;;;5.73;5.20;;;10.60;58.30;;;;;;5061319;28;20216;-63
2020/12/15 09:24:02;;;;;;;5.50;5.00;;;10.60;58.10;;;;;;5063623;28;20691;-64
2020/12/15 09:26:29;;;;;;;5.67;5.27;;;10.70;58.10;;;;;;5058112;28;20225;-63
2020/12/15 09:29:07;;;;;;;5.87;5.37;;;10.70;57.90;;;;;;5059578;28;20720;-63
2020/12/15 09:31:34;;;;;;;5.97;5.47;;;10.80;57.80;;;;;;5062210;28;20295;-63
2020/12/15 09:34:00;;;;;;;6.07;5.57;;;10.80;57.80;;;;;;5065035;28;20671;-64
2020/12/15 09:36:27;;;;;;;6.87;5.33;;;10.90;57.90;;;;;;5064496;28;20205;-64
2020/12/15 09:38:54;;;;;;;6.00;5.40;;;10.90;57.90;;;;;;5063121;28;21023;-63
2020/12/15 09:41:20;;;;;;;6.23;5.73;;;11.00;57.90;;;;;;5062369;28;20213;-63
2020/12/15 09:43:47;;;;;;;5.87;5.27;;;11.10;57.90;;;;;;5059682;28;20232;-64
2020/12/15 09:46:14;;;;;;;6.23;5.73;;;11.20;57.90;;;;;;5061094;28;20713;-64
2020/12/15 09:48:41;;;;;;;5.73;5.33;;;11.30;58.50;;;;;;5067057;28;20230;-65
2020/12/15 09:51:11;;;;;;;5.93;5.53;;;11.40;57.90;;;;;;5061561;28;20278;-65
2020/12/15 09:53:37;;;;;;;5.97;5.37;;;11.60;57.80;;;;;;5061779;28;20648;-64
2020/12/15 09:56:03;;;;;;;6.70;6.10;;;11.70;57.70;;;;;;5063524;28;20200;-64
2020/12/15 09:58:30;;;;;;;7.53;5.90;;;11.90;57.60;;;;;;5064843;28;20233;-64
2020/12/15 10:00:57;;;;;;;6.63;6.03;;;12.10;57.50;;;;;;5062777;28;20204;-63
2020/12/15 10:03:24;;;;;;;6.37;5.80;;;12.40;57.40;;;;;;5064169;28;20323;-64
2020/12/15 10:05:50;;;;;;;6.53;5.93;;;12.50;57.20;;;;;;5069556;28;20228;-65
2020/12/15 10:08:17;;;;;;;6.37;5.77;;;12.80;57.00;;;;;;5068576;28;20270;-64
2020/12/15 10:10:43;;;;;;;5.60;5.13;;;13.00;56.80;;;;;;5066654;28;20705;-64
2020/12/15 10:13:11;;;;;;;6.13;5.63;;;13.30;56.70;;;;;;5068498;28;20201;-64
2020/12/15 10:15:37;;;;;;;6.23;5.63;;;13.50;56.30;;;;;;5066709;28;20197;-63
2020/12/15 10:18:09;;;;;;;6.00;5.50;;;13.70;55.90;;;;;;5068882;28;20205;-64
2020/12/15 10:20:36;;;;;;;7.17;5.73;;;13.90;55.50;;;;;;5067594;28;20295;-64
2020/12/15 10:23:03;;;;;;;6.00;5.37;;;14.10;55.10;;;;;;5064031;28;20208;-64
2020/12/15 10:25:29;;;;;;;9.93;5.53;;;14.30;54.90;;;;;;5067786;28;20232;-65
2020/12/15 10:27:56;;;;;;;5.83;5.33;;;14.50;54.60;;;;;;5068867;28;20204;-65
2020/12/15 10:30:22;;;;;;;5.93;5.20;;;14.70;54.40;;;;;;5065777;28;21996;-64
2020/12/15 10:32:48;;;;;;;5.77;5.27;;;14.80;54.10;;;;;;5068992;28;20209;-64
2020/12/15 10:35:15;;;;;;;6.27;5.77;;;15.00;54.10;;;;;;5069425;28;20611;-64
2020/12/15 10:37:42;;;;;;;6.77;5.13;;;15.10;54.00;;;;;;5066810;28;20205;-64
2020/12/15 10:40:08;;;;;;;6.47;5.43;;;15.30;53.80;;;;;;5066948;28;20553;-63
2020/12/15 10:42:36;;;;;;;5.60;5.10;;;15.50;53.70;;;;;;5069656;28;20220;-63
2020/12/15 10:45:03;;;;;;;5.97;5.37;;;15.70;53.50;;;;;;5069069;28;20650;-66
2020/12/15 10:47:30;;;;;;;5.77;5.20;;;15.90;53.20;;;;;;5070409;28;20462;-64
2020/12/15 10:49:56;;;;;;;4.60;4.20;;;16.00;53.00;;;;;;5065472;28;20686;-64
2020/12/15 10:52:23;;;;;;;4.60;4.20;;;16.20;52.70;;;;;;5065994;28;20205;-66
2020/12/15 10:54:50;;;;;;;9.30;4.57;;;16.30;52.50;;;;;;5065638;28;20237;-62
2020/12/15 10:57:16;;;;;;;4.27;3.87;;;16.30;52.10;;;;;;5069400;28;20205;-61
2020/12/15 10:59:43;;;;;;;5.70;3.87;;;16.30;52.10;;;;;;5066483;28;20231;-64
2020/12/15 11:02:11;;;;;;;5.57;4.30;;;16.20;51.90;;;;;;5066438;28;20213;-64
2020/12/15 11:04:37;;;;;;;4.87;4.47;;;16.10;51.80;;;;;;5066036;28;20233;-64
2020/12/15 11:07:04;;;;;;;4.23;3.87;;;16.10;51.70;;;;;;5066972;28;20677;-64
2020/12/15 11:09:30;;;;;;;5.70;4.43;;;15.90;51.60;;;;;;5065970;28;20827;-64
2020/12/15 11:11:58;;;;;;;5.27;4.60;;;15.80;51.80;;;;;;5065195;28;20208;-67
2020/12/15 11:14:24;;;;;;;4.50;4.10;;;15.70;51.80;;;;;;5064019;28;20220;-65
2020/12/15 11:16:50;;;;;;;5.87;5.37;;;15.60;51.90;;;;;;5064252;28;20205;-65
2020/12/15 11:19:17;;;;;;;6.10;5.60;;;15.50;51.70;;;;;;5066643;28;20213;-64
2020/12/15 11:21:43;;;;;;;6.17;5.60;;;15.40;51.60;;;;;;5065455;28;20216;-67
2020/12/15 11:24:10;;;;;;;6.93;6.33;;;15.30;51.50;;;;;;5064068;28;20286;-64
2020/12/15 11:26:36;;;;;;;6.53;5.93;;;15.10;51.50;;;;;;5064412;28;20251;-65
2020/12/15 11:29:03;;;;;;;7.10;6.40;;;15.00;51.50;;;;;;5068783;28;20209;-64
2020/12/15 11:31:30;;;;;;;7.13;6.43;;;14.80;51.50;;;;;;5063981;28;20587;-64
2020/12/15 11:33:56;;;;;;;7.07;6.47;;;14.70;51.70;;;;;;5064225;28;20225;-64
2020/12/15 11:36:25;;;;;;;6.63;6.13;;;14.50;51.80;;;;;;5067120;28;20212;-65
2020/12/15 11:38:51;;;;;;;6.77;6.23;;;14.40;52.00;;;;;;5064992;28;20581;-65
2020/12/15 11:41:17;;;;;;;6.87;6.27;;;14.30;52.20;;;;;;5062686;28;20249;-68
2020/12/15 11:43:44;;;;;;;7.20;6.60;;;14.20;52.30;;;;;;5066498;28;20600;-64
2020/12/15 11:46:11;;;;;;;6.93;6.40;;;14.10;52.40;;;;;;5067157;28;20228;-67
2020/12/15 11:48:38;;;;;;;7.10;6.50;;;14.00;52.50;;;;;;5066260;28;20284;-64
2020/12/15 11:51:04;;;;;;;8.50;6.73;;;13.90;52.60;;;;;;5064317;28;20206;-67
2020/12/15 11:53:31;;;;;;;7.33;6.73;;;13.80;52.70;;;;;;5061859;28;20589;-64
2020/12/15 11:55:57;;;;;;;7.77;7.17;;;13.80;52.90;;;;;;5064807;28;20197;-63
2020/12/15 11:58:24;;;;;;;7.97;7.20;;;13.70;53.20;;;;;;5067033;28;20201;-63
2020/12/15 12:00:50;;;;;;;7.47;6.77;;;13.80;53.30;;;;;;5066651;28;20654;-64
2020/12/15 12:03:17;;;;;;;7.77;7.17;;;13.80;53.40;;;;;;5065904;28;20236;-65
2020/12/15 12:05:44;;;;;;;8.03;7.33;;;13.80;53.30;;;;;;5065745;28;20236;-64
2020/12/15 12:08:10;;;;;;;7.50;6.90;;;13.80;53.30;;;;;;5065027;28;20209;-63
2020/12/15 12:10:36;;;;;;;7.50;6.90;;;13.90;53.20;;;;;;5062593;28;20244;-65
2020/12/15 12:13:03;;;;;;;7.23;6.63;;;13.80;52.90;;;;;;5067401;28;20255;-64
2020/12/15 12:15:29;;;;;;;8.60;7.07;;;13.80;52.90;;;;;;5064687;28;20967;-65
2020/12/15 12:17:57;;;;;;;7.60;6.90;;;13.80;52.80;;;;;;5060837;28;20216;-63
2020/12/15 12:20:25;;;;;;;8.20;7.50;;;13.60;52.80;;;;;;5062368;28;20213;-66
2020/12/15 12:22:51;;;;;;;7.73;7.13;;;13.60;52.70;;;;;;5055657;28;20296;-64
2020/12/15 12:25:17;;;;;;;7.50;6.90;;;13.50;52.90;;;;;;5061526;28;20315;-63
2020/12/15 12:27:44;;;;;;;8.43;7.70;;;13.40;52.90;;;;;;5062725;28;20209;-65
2020/12/15 12:30:11;;;;;;;8.90;7.77;;;13.30;53.70;;;;;;5062884;28;20232;-64
2020/12/15 12:32:40;;;;;;;8.73;8.00;;;13.20;53.20;;;;;;5061026;28;20255;-64
2020/12/15 12:35:07;;;;;;;8.33;7.73;;;13.10;53.20;;;;;;5061569;28;20229;-64
2020/12/15 12:37:34;;;;;;;9.03;8.23;;;13.10;53.30;;;;;;5064255;28;20759;-62
2020/12/15 12:40:01;;;;;;;8.60;7.90;;;13.00;53.50;;;;;;5062429;28;20219;-61
2020/12/15 12:42:38;;;;;;;8.90;8.00;;;13.00;53.60;;;;;;5063736;28;20200;-65
2020/12/15 12:45:05;;;;;;;8.17;7.50;;;13.00;53.70;;;;;;5063427;28;20243;-66
2020/12/15 12:47:32;;;;;;;8.37;7.67;;;13.00;53.80;;;;;;5059713;28;20210;-64
2020/12/15 12:49:58;;;;;;;8.23;7.43;;;12.90;53.90;;;;;;5059545;28;20206;-64
2020/12/15 12:52:25;;;;;;;8.93;8.03;;;12.90;54.00;;;;;;5064245;28;20200;-66
2020/12/15 12:54:52;;;;;;;8.50;7.83;;;12.90;54.00;;;;;;5062848;28;20312;-65
2020/12/15 12:57:18;;;;;;;9.30;8.50;;;12.90;54.00;;;;;;5062912;28;20247;-65
2020/12/15 12:59:44;;;;;;;9.33;8.33;;;12.90;54.10;;;;;;5061423;28;20990;-64